Time;durP1;ratioP1;P1;durP2;ratioP2;P2;SDS_P1;SDS_P2;PMS_P1;PMS_P2;Temp;Humidity;BMP_temperature;BMP_pressure;BME280_temperature;BME280_humidity;BME280_pressure;Samples;Min_cycle;Max_cycle;Signal;HPM_P1;HPM_P2
2023/04/10 00:00:05;;;;;;;20.63;17.93;;;2.60;99.90;;;;;;4877828;29;20215;-75
2023/04/10 00:02:34;;;;;;;22.20;17.87;;;2.50;99.90;;;;;;4877864;29;20253;-75
2023/04/10 00:05:04;;;;;;;20.10;17.63;;;2.50;99.90;;;;;;4878535;29;20225;-75
2023/04/10 00:07:33;;;;;;;21.57;18.40;;;2.40;99.90;;;;;;4878381;29;20571;-73
2023/04/10 00:10:01;;;;;;;23.00;18.60;;;2.40;99.90;;;;;;4877845;29;20238;-75
2023/04/10 00:12:30;;;;;;;20.50;17.40;;;2.30;99.90;;;;;;4878175;29;20211;-74
2023/04/10 00:14:58;;;;;;;21.30;18.13;;;2.20;99.90;;;;;;4878124;29;20218;-76
2023/04/10 00:17:26;;;;;;;20.50;17.40;;;2.20;99.90;;;;;;4877868;29;20226;-75
2023/04/10 00:19:54;;;;;;;20.53;17.60;;;2.10;99.90;;;;;;4877850;29;20237;-73
2023/04/10 00:22:23;;;;;;;21.03;17.67;;;2.10;99.90;;;;;;4877891;29;20241;-73
2023/04/10 00:24:51;;;;;;;21.63;18.07;;;2.00;99.90;;;;;;4877847;29;20234;-74
2023/04/10 00:27:19;;;;;;;21.73;18.40;;;2.00;99.90;;;;;;4878162;29;20465;-74
2023/04/10 00:29:47;;;;;;;20.97;17.60;;;1.90;99.90;;;;;;4877925;29;20240;-76
2023/04/10 00:32:15;;;;;;;21.87;17.83;;;1.90;99.90;;;;;;4877738;29;20299;-75
2023/04/10 00:34:44;;;;;;;21.63;17.90;;;1.90;99.90;;;;;;4878302;29;20222;-75
2023/04/10 00:37:12;;;;;;;20.93;17.63;;;1.80;99.90;;;;;;4877599;29;20688;-72
2023/04/10 00:39:41;;;;;;;20.23;17.43;;;1.80;99.90;;;;;;4881491;29;20671;-74
2023/04/10 00:42:09;;;;;;;21.30;17.70;;;1.70;99.90;;;;;;4895109;29;20241;-74
2023/04/10 00:44:37;;;;;;;21.17;17.80;;;1.70;99.90;;;;;;4897052;29;20225;-75
2023/04/10 00:47:06;;;;;;;21.33;18.13;;;1.70;99.90;;;;;;4896524;29;20688;-73
2023/04/10 00:49:34;;;;;;;21.50;18.23;;;1.60;99.90;;;;;;4906008;29;20489;-76
2023/04/10 00:52:02;;;;;;;22.20;18.17;;;1.70;99.90;;;;;;4900010;29;20252;-73
2023/04/10 00:54:31;;;;;;;21.43;17.47;;;1.60;99.90;;;;;;4899884;29;20691;-74
2023/04/10 00:57:02;;;;;;;23.60;18.30;;;1.60;99.90;;;;;;4898838;29;20232;-74
2023/04/10 00:59:31;;;;;;;21.37;18.03;;;1.60;99.90;;;;;;4899886;29;20573;-73
2023/04/10 01:01:59;;;;;;;22.53;17.67;;;1.50;99.90;;;;;;4899390;29;20661;-76
2023/04/10 01:04:29;;;;;;;23.13;19.07;;;1.50;99.90;;;;;;4900015;29;20225;-75
2023/04/10 01:07:03;;;;;;;22.80;18.63;;;1.50;99.90;;;;;;4900167;29;20224;-76
2023/04/10 01:09:38;;;;;;;23.63;19.37;;;1.40;99.90;;;;;;4900463;29;20233;-76
2023/04/10 01:12:23;;;;;;;22.37;18.70;;;1.40;99.90;;;;;;4903817;29;20197;-76
2023/04/10 01:15:02;;;;;;;25.60;19.23;;;1.40;99.90;;;;;;4911823;29;20241;-74
2023/04/10 01:17:35;;;;;;;24.07;19.47;;;1.40;99.90;;;;;;4881736;29;20435;-74
2023/04/10 01:20:09;;;;;;;23.57;18.87;;;1.40;99.90;;;;;;4881021;29;20279;-75
2023/04/10 01:22:49;;;;;;;22.80;18.40;;;1.30;99.90;;;;;;4880765;29;20509;-75
2023/04/10 01:25:38;;;;;;;23.20;19.10;;;1.30;99.90;;;;;;4879873;29;20195;-74
2023/04/10 01:28:21;;;;;;;22.87;19.13;;;1.30;99.90;;;;;;4880855;29;20199;-74
2023/04/10 01:30:57;;;;;;;22.20;18.83;;;1.20;99.90;;;;;;4879463;29;20237;-73
2023/04/10 01:33:32;;;;;;;23.37;19.53;;;1.20;99.90;;;;;;4893923;29;20205;-72
2023/04/10 01:36:04;;;;;;;22.63;19.30;;;1.20;99.90;;;;;;4899706;29;20547;-74
2023/04/10 01:38:34;;;;;;;24.70;19.73;;;1.10;99.90;;;;;;4899492;29;20802;-75
2023/04/10 01:41:03;;;;;;;24.03;19.43;;;1.10;99.90;;;;;;4899268;29;20469;-73
2023/04/10 01:43:32;;;;;;;24.67;19.57;;;1.00;99.90;;;;;;4882832;29;20214;-74
2023/04/10 01:46:07;;;;;;;25.83;19.77;;;1.00;99.90;;;;;;4880411;29;20210;-73
2023/04/10 01:48:36;;;;;;;25.07;19.40;;;1.00;99.90;;;;;;4880820;29;20218;-73
2023/04/10 01:51:07;;;;;;;25.97;20.03;;;1.00;99.90;;;;;;4880129;29;20494;-75
2023/04/10 01:53:36;;;;;;;25.47;20.60;;;1.00;99.90;;;;;;4880502;29;20218;-74
2023/04/10 01:56:05;;;;;;;28.77;21.67;;;1.00;99.90;;;;;;4880253;29;20957;-74
2023/04/10 01:58:34;;;;;;;26.77;21.47;;;0.90;99.90;;;;;;4880566;29;20494;-76
2023/04/10 02:01:03;;;;;;;25.27;20.97;;;1.00;99.90;;;;;;4879313;29;20522;-74
2023/04/10 02:03:32;;;;;;;25.10;20.97;;;1.00;99.90;;;;;;4880235;29;20458;-76
2023/04/10 02:06:11;;;;;;;27.67;21.97;;;1.00;99.90;;;;;;4880587;29;20918;-74
2023/04/10 02:08:43;;;;;;;28.03;21.80;;;1.00;99.90;;;;;;4880326;29;20792;-76
2023/04/10 02:11:15;;;;;;;26.07;21.10;;;1.00;99.90;;;;;;4880225;29;20707;-75
2023/04/10 02:13:44;;;;;;;26.33;20.50;;;1.00;99.90;;;;;;4879800;29;20300;-75
2023/04/10 02:16:17;;;;;;;26.33;20.67;;;1.00;99.90;;;;;;4879815;29;20451;-76
2023/04/10 02:18:47;;;;;;;27.07;20.93;;;1.00;99.90;;;;;;4880266;29;20446;-74
2023/04/10 02:21:16;;;;;;;27.50;21.27;;;1.00;99.90;;;;;;4879818;29;20541;-74
2023/04/10 02:23:44;;;;;;;26.03;20.13;;;1.00;99.90;;;;;;4879717;29;20482;-75
2023/04/10 02:26:12;;;;;;;26.90;20.80;;;0.90;99.90;;;;;;4879893;29;20471;-76
2023/04/10 02:28:40;;;;;;;28.73;21.77;;;0.90;99.90;;;;;;4880178;29;20613;-75
2023/04/10 02:31:08;;;;;;;27.67;21.80;;;0.90;99.90;;;;;;4880197;29;20837;-73
2023/04/10 02:33:37;;;;;;;26.93;21.00;;;0.90;99.90;;;;;;4879812;29;20463;-74
2023/04/10 02:36:07;;;;;;;26.87;20.80;;;0.90;99.90;;;;;;4880769;29;20210;-76
2023/04/10 02:38:35;;;;;;;25.13;20.23;;;0.90;99.90;;;;;;4898330;29;20454;-76
2023/04/10 02:41:03;;;;;;;24.63;19.70;;;0.90;99.90;;;;;;4899038;29;20468;-74
2023/04/10 02:43:31;;;;;;;27.23;20.93;;;0.80;99.90;;;;;;4895318;29;20480;-75
2023/04/10 02:45:59;;;;;;;25.10;20.00;;;0.80;99.90;;;;;;4879395;29;20458;-74
2023/04/10 02:48:27;;;;;;;26.70;20.70;;;0.80;99.90;;;;;;4879620;29;20929;-77
2023/04/10 02:51:00;;;;;;;26.53;20.00;;;0.80;99.90;;;;;;4879257;29;20494;-75
2023/04/10 02:53:28;;;;;;;26.53;21.17;;;0.70;99.90;;;;;;4879192;29;20523;-76
2023/04/10 02:55:56;;;;;;;25.67;19.47;;;0.70;99.90;;;;;;4879604;29;20545;-76
2023/04/10 02:58:24;;;;;;;24.47;19.90;;;0.70;99.90;;;;;;4879702;29;20827;-76
2023/04/10 03:00:52;;;;;;;27.27;21.07;;;0.60;99.90;;;;;;4883159;29;20475;-74
2023/04/10 03:03:20;;;;;;;27.00;21.27;;;0.70;99.90;;;;;;4897578;29;20450;-73
2023/04/10 03:05:49;;;;;;;28.77;21.60;;;0.70;99.90;;;;;;4897528;29;20966;-74
2023/04/10 03:08:18;;;;;;;29.90;21.33;;;0.70;99.90;;;;;;4899552;29;20553;-75
2023/04/10 03:10:48;;;;;;;27.37;21.40;;;0.70;99.90;;;;;;4896947;29;20504;-75
2023/04/10 03:13:17;;;;;;;27.03;21.37;;;0.60;99.90;;;;;;4897248;29;20552;-76
2023/04/10 03:15:45;;;;;;;27.43;21.73;;;0.60;99.90;;;;;;4897455;29;20552;-76
2023/04/10 03:18:13;;;;;;;28.70;22.33;;;0.60;99.90;;;;;;4895688;29;20482;-75
2023/04/10 03:20:41;;;;;;;29.07;22.10;;;0.60;99.90;;;;;;4878723;29;20541;-75
2023/04/10 03:23:11;;;;;;;27.63;21.83;;;0.60;99.90;;;;;;4878552;29;20495;-75
2023/04/10 03:25:42;;;;;;;28.93;22.07;;;0.70;99.90;;;;;;4878621;29;20852;-75
2023/04/10 03:28:10;;;;;;;30.73;24.07;;;0.70;99.90;;;;;;4878714;29;20506;-74
2023/04/10 03:30:38;;;;;;;31.07;24.03;;;0.70;99.90;;;;;;4878412;29;20546;-75
2023/04/10 03:33:06;;;;;;;34.17;24.20;;;0.70;99.90;;;;;;4877806;29;20482;-73
2023/04/10 03:35:34;;;;;;;33.10;24.90;;;0.70;99.90;;;;;;4882914;29;20557;-73
2023/04/10 03:38:02;;;;;;;33.83;25.60;;;0.80;99.90;;;;;;4897227;29;20504;-75
2023/04/10 03:40:30;;;;;;;34.67;24.83;;;0.80;99.90;;;;;;4878595;29;20455;-74
2023/04/10 03:42:59;;;;;;;33.33;25.03;;;0.80;99.90;;;;;;4891129;29;20477;-75
2023/04/10 03:45:28;;;;;;;32.27;24.87;;;0.80;99.90;;;;;;4897350;29;20552;-74
2023/04/10 03:47:56;;;;;;;33.90;24.70;;;0.80;99.90;;;;;;4897350;29;20815;-73
2023/04/10 03:50:25;;;;;;;30.90;23.63;;;0.70;99.90;;;;;;4896752;29;20916;-76
2023/04/10 03:52:53;;;;;;;30.53;23.70;;;0.70;99.90;;;;;;4881730;29;20556;-75
2023/04/10 03:55:21;;;;;;;31.33;23.63;;;0.70;99.90;;;;;;4878461;29;20489;-74
2023/04/10 03:57:49;;;;;;;31.53;23.97;;;0.60;99.90;;;;;;4878153;29;20451;-74
2023/04/10 04:00:20;;;;;;;30.90;24.13;;;0.60;99.90;;;;;;4878111;29;20952;-73
2023/04/10 04:02:49;;;;;;;30.13;23.10;;;0.60;99.90;;;;;;4877418;29;20494;-74
2023/04/10 04:05:18;;;;;;;31.67;23.77;;;0.60;99.90;;;;;;4880733;29;20546;-73
2023/04/10 04:07:46;;;;;;;32.60;23.60;;;0.50;99.90;;;;;;4878199;29;20815;-73
2023/04/10 04:10:14;;;;;;;32.50;24.20;;;0.50;99.90;;;;;;4889969;29;20500;-75
2023/04/10 04:12:42;;;;;;;32.37;24.63;;;0.50;99.90;;;;;;4896313;29;20679;-75
2023/04/10 04:15:11;;;;;;;31.80;23.97;;;0.50;99.90;;;;;;4896602;29;20470;-75
2023/04/10 04:17:40;;;;;;;33.07;24.03;;;0.40;99.90;;;;;;4887973;29;20479;-73
2023/04/10 04:20:09;;;;;;;32.63;24.77;;;0.50;99.90;;;;;;4878282;29;20462;-73
2023/04/10 04:22:41;;;;;;;30.90;24.53;;;0.50;99.90;;;;;;4878245;29;20455;-75
2023/04/10 04:25:10;;;;;;;31.73;23.73;;;0.40;99.90;;;;;;4882029;29;20553;-75
2023/04/10 04:27:38;;;;;;;29.33;22.60;;;0.40;99.90;;;;;;4893054;29;20505;-75
2023/04/10 04:30:08;;;;;;;32.57;25.07;;;0.40;99.90;;;;;;4895589;29;20460;-74
2023/04/10 04:32:36;;;;;;;32.77;24.70;;;0.30;99.90;;;;;;4890371;29;20446;-75
2023/04/10 04:35:06;;;;;;;33.40;24.50;;;0.30;99.90;;;;;;4892641;29;20458;-75
2023/04/10 04:37:34;;;;;;;32.30;24.37;;;0.30;99.90;;;;;;4881864;29;20434;-73
2023/04/10 04:40:02;;;;;;;32.60;24.73;;;0.30;99.90;;;;;;4881839;29;20446;-75
2023/04/10 04:42:30;;;;;;;30.77;24.10;;;0.30;99.90;;;;;;4881011;29;20462;-73
2023/04/10 04:44:58;;;;;;;31.63;23.50;;;0.20;99.90;;;;;;4881483;29;20474;-75
2023/04/10 04:47:26;;;;;;;29.17;22.33;;;0.20;99.90;;;;;;4881843;29;20459;-75
2023/04/10 04:49:54;;;;;;;29.20;23.07;;;0.20;99.90;;;;;;4881652;29;20462;-73
2023/04/10 04:52:26;;;;;;;31.03;22.93;;;0.20;99.90;;;;;;4881046;29;20490;-75
2023/04/10 04:54:54;;;;;;;27.87;21.83;;;0.20;99.90;;;;;;4882624;29;20451;-75
2023/04/10 04:57:22;;;;;;;29.07;22.23;;;0.20;99.90;;;;;;4888045;29;20801;-73
2023/04/10 04:59:50;;;;;;;27.30;21.13;;;0.10;99.90;;;;;;4881150;29;20477;-75
2023/04/10 05:02:21;;;;;;;27.43;21.00;;;0.10;99.90;;;;;;4880793;29;20489;-76
2023/04/10 05:04:50;;;;;;;25.10;20.47;;;0.20;99.90;;;;;;4881584;29;20455;-75
2023/04/10 05:07:18;;;;;;;26.53;20.57;;;0.10;99.90;;;;;;4881581;29;20457;-74
2023/04/10 05:09:47;;;;;;;25.57;20.37;;;0.10;99.90;;;;;;4881327;29;20474;-75
2023/04/10 05:12:15;;;;;;;29.73;22.13;;;0.10;99.90;;;;;;4886144;29;20494;-75
2023/04/10 05:14:43;;;;;;;28.97;21.23;;;0.10;99.90;;;;;;4887320;29;20465;-75
2023/04/10 05:17:13;;;;;;;30.40;21.37;;;0.20;99.90;;;;;;4884995;29;20470;-74
2023/04/10 05:19:41;;;;;;;26.83;21.07;;;0.20;99.90;;;;;;4881145;29;20501;-73
2023/04/10 05:22:09;;;;;;;26.40;21.23;;;0.30;99.90;;;;;;4880629;29;20497;-75
2023/04/10 05:24:38;;;;;;;27.17;20.83;;;0.30;99.90;;;;;;4883987;29;20484;-75
2023/04/10 05:27:07;;;;;;;27.47;20.47;;;0.30;99.90;;;;;;4899828;29;20815;-75
2023/04/10 05:29:35;;;;;;;25.07;19.73;;;0.40;99.90;;;;;;4899754;29;20458;-74
2023/04/10 05:32:03;;;;;;;23.50;19.13;;;0.50;99.90;;;;;;4899447;29;20500;-75
2023/04/10 05:34:31;;;;;;;24.27;19.27;;;0.50;99.90;;;;;;4880235;29;20479;-75
2023/04/10 05:36:59;;;;;;;24.67;20.13;;;0.60;99.90;;;;;;4881033;29;20459;-73
2023/04/10 05:39:27;;;;;;;24.70;19.73;;;0.60;99.90;;;;;;4880694;29;20506;-73
2023/04/10 05:41:57;;;;;;;24.10;19.67;;;0.70;99.90;;;;;;4880601;29;20827;-75
2023/04/10 05:44:26;;;;;;;22.27;18.10;;;0.70;99.90;;;;;;4895634;29;20221;-74
2023/04/10 05:46:55;;;;;;;23.33;19.67;;;0.80;99.90;;;;;;4899717;29;20850;-73
2023/04/10 05:49:23;;;;;;;22.83;18.80;;;0.90;99.90;;;;;;4899275;29;20450;-73
2023/04/10 05:51:52;;;;;;;22.37;18.60;;;0.90;99.90;;;;;;4891250;29;20475;-75
2023/04/10 05:54:20;;;;;;;23.03;19.33;;;0.90;99.90;;;;;;4880388;29;20451;-74
2023/04/10 05:56:48;;;;;;;22.87;19.00;;;1.00;99.90;;;;;;4880903;29;20480;-75
2023/04/10 05:59:16;;;;;;;23.03;19.33;;;1.10;99.90;;;;;;4880050;29;20557;-74
2023/04/10 06:01:46;;;;;;;21.77;18.47;;;1.20;99.90;;;;;;4880232;29;20250;-73
2023/04/10 06:04:14;;;;;;;20.83;18.63;;;1.20;99.90;;;;;;4880250;29;20502;-76
2023/04/10 06:06:42;;;;;;;20.03;17.50;;;1.30;99.90;;;;;;4880421;29;20215;-73
2023/04/10 06:09:10;;;;;;;20.23;17.77;;;1.50;99.90;;;;;;4880441;29;20292;-75
2023/04/10 06:11:39;;;;;;;17.80;15.93;;;1.90;99.90;;;;;;4880018;29;20555;-75
2023/04/10 06:14:07;;;;;;;15.90;14.20;;;2.50;99.90;;;;;;4880224;29;20218;-74
2023/04/10 06:16:35;;;;;;;13.80;12.30;;;3.20;99.90;;;;;;4880177;29;20673;-74
2023/04/10 06:19:05;;;;;;;12.90;11.33;;;4.30;99.90;;;;;;4879843;29;20308;-77
2023/04/10 06:21:33;;;;;;;13.57;11.27;;;5.50;99.90;;;;;;4880268;29;20680;-75
2023/04/10 06:24:01;;;;;;;12.33;11.00;;;6.20;99.90;;;;;;4879479;29;20218;-76
2023/04/10 06:26:29;;;;;;;10.90;9.80;;;7.20;99.90;;;;;;4879979;29;20218;-76
2023/04/10 06:28:57;;;;;;;11.37;10.17;;;7.70;99.90;;;;;;4879762;29;20297;-77
2023/04/10 06:31:26;;;;;;;10.67;9.57;;;8.20;99.90;;;;;;4884555;29;20217;-75
2023/04/10 06:33:54;;;;;;;10.00;9.00;;;9.30;99.90;;;;;;4898193;29;20692;-75
2023/04/10 06:36:23;;;;;;;9.47;8.57;;;10.10;99.90;;;;;;4889656;29;20305;-75
2023/04/10 06:38:51;;;;;;;10.13;9.07;;;9.70;99.90;;;;;;4879598;29;20218;-78
2023/04/10 06:41:20;;;;;;;9.63;8.73;;;9.70;99.90;;;;;;4879856;29;20218;-76
2023/04/10 06:43:48;;;;;;;9.33;8.43;;;10.30;99.90;;;;;;4879407;29;20222;-78
2023/04/10 06:46:16;;;;;;;9.53;8.63;;;10.50;99.90;;;;;;4879371;29;20218;-78
2023/04/10 06:48:44;;;;;;;9.53;8.57;;;10.40;99.90;;;;;;4879846;29;20214;-76
2023/04/10 06:51:12;;;;;;;9.40;8.50;;;10.50;99.90;;;;;;4879717;29;20244;-76
2023/04/10 06:53:42;;;;;;;9.20;8.30;;;10.90;99.90;;;;;;4887848;29;20240;-74
2023/04/10 06:56:10;;;;;;;9.53;8.63;;;11.60;99.90;;;;;;4898153;29;20227;-74
2023/04/10 06:58:40;;;;;;;9.27;8.37;;;11.40;99.90;;;;;;4898304;29;20210;-74
2023/04/10 07:01:08;;;;;;;9.57;8.67;;;11.20;99.90;;;;;;4888957;29;20214;-74
2023/04/10 07:03:36;;;;;;;8.60;7.80;;;12.50;99.90;;;;;;4878875;29;20207;-74
2023/04/10 07:06:04;;;;;;;8.43;7.63;;;13.00;99.90;;;;;;4879133;29;20304;-75
2023/04/10 07:08:32;;;;;;;8.20;7.40;;;12.50;99.90;;;;;;4879037;29;20214;-74
2023/04/10 07:11:02;;;;;;;7.80;7.10;;;12.80;99.90;;;;;;4886082;29;20240;-78
2023/04/10 07:13:30;;;;;;;7.90;7.17;;;12.60;99.90;;;;;;4897556;29;20232;-74
2023/04/10 07:15:58;;;;;;;7.60;6.90;;;13.10;99.90;;;;;;4902914;29;20277;-75
2023/04/10 07:18:26;;;;;;;8.00;7.20;;;13.10;99.90;;;;;;4896317;29;20214;-74
2023/04/10 07:20:54;;;;;;;7.60;6.90;;;13.10;99.90;;;;;;4878979;29;20214;-74
2023/04/10 07:23:22;;;;;;;7.43;6.73;;;13.10;99.70;;;;;;4896857;29;20212;-75
2023/04/10 07:25:51;;;;;;;7.83;7.13;;;13.60;99.50;;;;;;4916237;29;20308;-75
2023/04/10 07:28:20;;;;;;;8.40;7.60;;;13.40;99.30;;;;;;4911251;29;20217;-74
2023/04/10 07:30:48;;;;;;;7.90;7.13;;;13.50;99.40;;;;;;4889691;29;20672;-75
2023/04/10 07:33:16;;;;;;;7.80;7.10;;;13.70;98.10;;;;;;4897149;29;20240;-74
2023/04/10 07:35:45;;;;;;;7.87;7.07;;;14.50;96.40;;;;;;4897579;29;20224;-74
2023/04/10 07:38:13;;;;;;;7.53;6.83;;;14.40;95.60;;;;;;4881222;29;20688;-74
2023/04/10 07:40:41;;;;;;;7.23;6.53;;;14.80;96.70;;;;;;4878584;29;20308;-75
2023/04/10 07:43:09;;;;;;;7.63;6.93;;;15.20;96.10;;;;;;4878503;29;20217;-74
2023/04/10 07:45:38;;;;;;;7.20;6.50;;;15.20;94.70;;;;;;4879994;29;20231;-74
2023/04/10 07:48:07;;;;;;;7.70;6.90;;;16.30;92.40;;;;;;4897304;29;20241;-77
2023/04/10 07:50:35;;;;;;;7.80;7.10;;;16.60;90.20;;;;;;4897329;29;20289;-75
2023/04/10 07:53:06;;;;;;;7.80;7.10;;;16.90;89.40;;;;;;4896998;29;20233;-74
2023/04/10 07:55:38;;;;;;;7.97;7.27;;;17.00;87.60;;;;;;4888679;29;20210;-74
2023/04/10 07:58:07;;;;;;;8.70;7.90;;;16.50;87.80;;;;;;4877900;29;20225;-77
2023/04/10 08:00:35;;;;;;;8.03;7.23;;;15.70;89.60;;;;;;4878185;29;20218;-74
2023/04/10 08:03:05;;;;;;;8.57;7.67;;;16.30;89.40;;;;;;4877927;29;20242;-75
2023/04/10 08:05:33;;;;;;;8.63;7.77;;;16.40;89.40;;;;;;4878074;29;20214;-75
2023/04/10 08:08:01;;;;;;;8.63;7.83;;;16.10;87.60;;;;;;4878781;29;20214;-75
2023/04/10 08:10:30;;;;;;;9.17;8.27;;;15.40;91.50;;;;;;4878463;29;20210;-74
2023/04/10 08:12:58;;;;;;;9.97;8.63;;;16.00;90.00;;;;;;4878098;29;20231;-75
2023/04/10 08:15:26;;;;;;;9.00;8.20;;;15.70;90.00;;;;;;4890208;29;20559;-75
2023/04/10 08:17:54;;;;;;;8.80;7.80;;;15.90;91.10;;;;;;4897160;29;20213;-74
2023/04/10 08:20:24;;;;;;;8.87;8.07;;;17.00;88.60;;;;;;4898189;29;20257;-75
2023/04/10 08:22:52;;;;;;;9.03;8.23;;;17.00;89.70;;;;;;4884494;29;20260;-75
2023/04/10 08:25:20;;;;;;;8.90;8.07;;;17.50;85.70;;;;;;4878453;29;20221;-74
2023/04/10 08:27:48;;;;;;;9.07;8.27;;;17.60;85.90;;;;;;4878237;29;20217;-73
2023/04/10 08:30:16;;;;;;;8.97;8.17;;;18.10;83.40;;;;;;4892439;29;20214;-73
2023/04/10 08:32:44;;;;;;;8.87;8.07;;;18.20;80.00;;;;;;4878277;29;20241;-74
2023/04/10 08:35:12;;;;;;;8.87;8.07;;;17.70;83.90;;;;;;4878376;29;20266;-75
2023/04/10 08:37:42;;;;;;;8.73;7.93;;;16.70;83.80;;;;;;4878883;29;20210;-73
2023/04/10 08:40:20;;;;;;;8.63;7.83;;;18.70;82.00;;;;;;4899243;29;20209;-75
2023/04/10 08:42:48;;;;;;;9.07;8.27;;;17.70;80.30;;;;;;4896653;29;20206;-74
2023/04/10 08:45:17;;;;;;;8.73;7.93;;;18.10;80.80;;;;;;4896877;29;20210;-75
2023/04/10 08:47:47;;;;;;;8.87;8.07;;;18.30;78.50;;;;;;4892662;29;20230;-76
2023/04/10 08:50:17;;;;;;;8.80;8.00;;;18.10;78.60;;;;;;4877886;29;20696;-75
2023/04/10 08:52:50;;;;;;;8.63;7.80;;;18.20;78.90;;;;;;4877805;29;20257;-75
2023/04/10 08:55:19;;;;;;;9.10;8.30;;;18.80;77.10;;;;;;4877552;29;20222;-76
2023/04/10 08:57:47;;;;;;;8.70;7.90;;;18.70;77.80;;;;;;4878021;29;20242;-76
2023/04/10 09:00:30;;;;;;;8.47;7.73;;;18.60;74.80;;;;;;4878048;29;20203;-74
2023/04/10 09:02:58;;;;;;;8.60;7.70;;;17.20;77.70;;;;;;4877656;29;20265;-74
2023/04/10 09:05:28;;;;;;;8.40;7.60;;;18.90;77.80;;;;;;4884761;29;20215;-74
2023/04/10 09:07:57;;;;;;;8.43;7.63;;;19.10;75.40;;;;;;4877912;29;20677;-74
2023/04/10 09:10:25;;;;;;;9.30;8.50;;;18.80;72.50;;;;;;4880598;29;20321;-75
2023/04/10 09:12:53;;;;;;;9.03;8.23;;;17.90;76.40;;;;;;4880614;29;20261;-74
2023/04/10 09:15:21;;;;;;;9.47;8.57;;;17.70;76.20;;;;;;4881362;29;20217;-74
2023/04/10 09:17:58;;;;;;;8.97;8.17;;;17.40;76.80;;;;;;4881280;29;20218;-74
2023/04/10 09:20:30;;;;;;;9.50;8.40;;;18.20;75.70;;;;;;4881316;29;20210;-75
2023/04/10 09:23:00;;;;;;;8.77;7.90;;;18.80;74.80;;;;;;4880813;29;20305;-75
2023/04/10 09:25:31;;;;;;;8.10;7.40;;;19.50;73.40;;;;;;4880809;29;20224;-74
2023/04/10 09:28:02;;;;;;;8.23;7.43;;;19.30;69.40;;;;;;4892009;29;20256;-75
2023/04/10 09:30:38;;;;;;;8.27;7.57;;;19.10;69.10;;;;;;4895245;29;20246;-75
2023/04/10 09:33:26;;;;;;;8.00;7.23;;;18.50;72.40;;;;;;4880463;29;20214;-74
2023/04/10 09:35:54;;;;;;;7.90;7.20;;;19.10;70.20;;;;;;4881013;29;20214;-75
2023/04/10 09:38:24;;;;;;;8.13;7.43;;;19.50;66.30;;;;;;4880975;29;20223;-75
2023/04/10 09:40:52;;;;;;;8.53;7.73;;;19.40;67.80;;;;;;4880912;29;20250;-75
2023/04/10 09:43:24;;;;;;;8.33;7.53;;;19.10;67.40;;;;;;4880578;29;20286;-74
2023/04/10 09:45:54;;;;;;;7.27;6.67;;;20.40;66.90;;;;;;4880540;29;20209;-74
2023/04/10 09:48:26;;;;;;;7.63;6.93;;;20.10;60.60;;;;;;4880414;29;20218;-75
2023/04/10 09:50:54;;;;;;;8.23;7.53;;;20.00;61.40;;;;;;4880601;29;20218;-76
2023/04/10 09:53:23;;;;;;;8.90;8.10;;;20.20;65.80;;;;;;4880035;29;20713;-75
2023/04/10 09:55:51;;;;;;;8.23;7.50;;;20.70;63.30;;;;;;4880489;29;20224;-76
2023/04/10 09:58:20;;;;;;;8.47;7.67;;;19.00;61.70;;;;;;4880573;29;20577;-75
2023/04/10 10:00:49;;;;;;;8.47;7.67;;;19.40;63.50;;;;;;4880442;29;20237;-74
2023/04/10 10:03:19;;;;;;;9.43;8.53;;;20.40;59.80;;;;;;4879501;29;20242;-74
2023/04/10 10:05:49;;;;;;;9.45;8.55;;;20.70;63.00;;;;;;4880171;29;20209;-76
2023/04/10 10:08:18;;;;;;;8.10;7.30;;;21.90;63.00;;;;;;4880279;29;20218;-76
2023/04/10 10:10:50;;;;;;;8.90;8.10;;;21.90;58.30;;;;;;4880098;29;20214;-76
2023/04/10 10:13:25;;;;;;;8.70;7.90;;;22.00;56.80;;;;;;4879889;29;20229;-76
2023/04/10 10:16:01;;;;;;;8.88;8.07;;;21.80;57.50;;;;;;4880236;29;20202;-76
2023/04/10 10:18:41;;;;;;;8.77;7.97;;;21.40;57.20;;;;;;4879803;29;20671;-77
2023/04/10 10:21:09;;;;;;;9.20;8.30;;;21.30;58.10;;;;;;4893179;29;20217;-76
2023/04/10 10:23:40;;;;;;;8.73;7.93;;;21.90;57.70;;;;;;4879434;29;20674;-76
2023/04/10 10:26:10;;;;;;;8.68;7.88;;;20.20;57.30;;;;;;4887725;29;20224;-76
2023/04/10 10:28:40;;;;;;;9.07;8.27;;;20.70;58.50;;;;;;4883438;29;20308;-76
2023/04/10 10:31:08;;;;;;;8.75;7.95;;;21.10;58.50;;;;;;4880123;29;20630;-75
2023/04/10 10:33:38;;;;;;;8.32;7.47;;;21.10;57.80;;;;;;4879363;29;20215;-75
2023/04/10 10:36:09;;;;;;;9.10;8.20;;;21.20;57.40;;;;;;4879526;29;20214;-76
2023/04/10 10:38:43;;;;;;;8.23;7.47;;;21.20;56.60;;;;;;4879544;29;20297;-75
2023/04/10 10:41:18;;;;;;;8.77;7.97;;;21.00;58.00;;;;;;4879723;29;20199;-75
2023/04/10 10:43:54;;;;;;;9.07;8.18;;;20.90;57.50;;;;;;4879475;29;20202;-75
2023/04/10 10:46:33;;;;;;;8.33;7.63;;;20.30;57.40;;;;;;4878989;29;20266;-74
2023/04/10 10:49:02;;;;;;;9.20;8.40;;;19.80;58.20;;;;;;4879452;29;20661;-75
2023/04/10 10:51:47;;;;;;;8.80;8.00;;;18.70;60.00;;;;;;4879368;29;20689;-76
2023/04/10 10:54:28;;;;;;;8.97;8.07;;;18.80;60.60;;;;;;4879175;29;20743;-73
2023/04/10 10:56:58;;;;;;;9.23;8.40;;;18.50;63.40;;;;;;4879206;29;20653;-74
2023/04/10 10:59:55;;;;;;;8.83;8.03;;;19.70;61.90;;;;;;4879632;29;20210;-74
2023/04/10 11:02:23;;;;;;;8.30;7.50;;;18.90;60.90;;;;;;4878584;29;20309;-75
2023/04/10 11:04:52;;;;;;;7.43;6.73;;;19.10;59.60;;;;;;4879350;29;20218;-75
2023/04/10 11:07:20;;;;;;;7.13;6.43;;;18.60;62.70;;;;;;4879286;29;20214;-74
2023/04/10 11:09:50;;;;;;;6.90;6.30;;;18.70;59.10;;;;;;4879165;29;20210;-75
2023/04/10 11:12:22;;;;;;;7.33;6.63;;;18.90;58.50;;;;;;4878980;29;20245;-76
2023/04/10 11:14:58;;;;;;;7.10;6.40;;;19.20;58.80;;;;;;4879146;29;20703;-75
2023/04/10 11:17:56;;;;;;;7.70;6.90;;;19.70;58.90;;;;;;4879362;29;20627;-75
2023/04/10 11:20:26;;;;;;;6.67;5.97;;;19.70;58.30;;;;;;4839571;29;20298;-75
2023/04/10 11:23:08;;;;;;;6.90;6.20;;;17.60;57.60;;;;;;4870436;29;20329;-74
2023/04/10 11:25:50;;;;;;;6.90;6.20;;;17.50;61.00;;;;;;4893574;29;20216;-76
2023/04/10 11:28:36;;;;;;;7.50;6.80;;;17.60;61.80;;;;;;4886937;29;20222;-74
2023/04/10 11:31:18;;;;;;;6.90;6.20;;;18.30;61.40;;;;;;4879151;29;20199;-74
2023/04/10 11:33:47;;;;;;;6.47;5.87;;;17.90;59.80;;;;;;4877576;29;20199;-73
2023/04/10 11:36:17;;;;;;;6.97;6.27;;;16.90;60.00;;;;;;4878655;29;20238;-73
2023/04/10 11:38:56;;;;;;;6.40;5.80;;;16.00;62.10;;;;;;4878813;29;20253;-76
2023/04/10 11:41:29;;;;;;;6.30;5.70;;;15.70;61.60;;;;;;4879004;29;20245;-73
2023/04/10 11:43:59;;;;;;;6.17;5.57;;;16.10;63.90;;;;;;4878250;29;20194;-74
2023/04/10 11:46:28;;;;;;;6.27;5.63;;;16.20;62.00;;;;;;4878579;29;20229;-75
2023/04/10 11:48:59;;;;;;;6.37;5.77;;;16.00;64.00;;;;;;4878695;29;20214;-73
2023/04/10 11:51:28;;;;;;;5.93;5.33;;;16.50;64.00;;;;;;4878851;29;20198;-74
2023/04/10 11:54:07;;;;;;;6.40;5.33;;;17.10;64.30;;;;;;4878447;29;20221;-75
2023/04/10 11:56:35;;;;;;;5.93;5.23;;;16.80;59.70;;;;;;4900517;29;20205;-76
2023/04/10 11:59:09;;;;;;;6.60;5.43;;;16.70;61.40;;;;;;4900453;29;20312;-74
2023/04/10 12:01:38;;;;;;;6.30;5.33;;;16.40;61.50;;;;;;4885962;29;20336;-74
2023/04/10 12:04:16;;;;;;;5.70;5.10;;;16.60;62.70;;;;;;4883068;29;20208;-75
2023/04/10 12:06:45;;;;;;;8.40;5.37;;;16.80;60.90;;;;;;4882298;29;20217;-75
2023/04/10 12:09:16;;;;;;;5.83;5.00;;;16.20;59.90;;;;;;4886370;29;20244;-76
2023/04/10 12:11:50;;;;;;;5.70;4.90;;;16.30;61.60;;;;;;4885180;29;20230;-73
2023/04/10 12:14:20;;;;;;;5.70;4.70;;;16.60;63.50;;;;;;4881680;29;20224;-74
2023/04/10 12:16:49;;;;;;;5.27;4.77;;;16.50;59.40;;;;;;4888794;29;20203;-74
2023/04/10 12:19:18;;;;;;;5.63;5.10;;;15.90;57.50;;;;;;4890968;29;20257;-75
2023/04/10 12:21:46;;;;;;;5.03;4.53;;;15.70;58.80;;;;;;4886635;29;20246;-74
2023/04/10 12:24:43;;;;;;;5.70;5.10;;;15.20;60.50;;;;;;4890073;29;20312;-74
2023/04/10 12:27:18;;;;;;;5.37;4.77;;;14.60;60.00;;;;;;4878643;29;20199;-74
2023/04/10 12:29:50;;;;;;;5.33;4.63;;;14.70;59.60;;;;;;4878530;29;20308;-74
2023/04/10 12:32:19;;;;;;;5.87;5.10;;;14.90;59.00;;;;;;4877947;29;20294;-73
2023/04/10 12:34:51;;;;;;;5.20;4.70;;;15.00;60.90;;;;;;4878616;29;20280;-75
2023/04/10 12:37:19;;;;;;;5.33;4.70;;;15.30;64.70;;;;;;4878412;29;20205;-75
2023/04/10 12:39:47;;;;;;;5.50;4.80;;;15.60;61.20;;;;;;4878938;29;20273;-73
2023/04/10 12:42:18;;;;;;;5.40;4.90;;;16.00;60.00;;;;;;4877861;29;20216;-75
2023/04/10 12:44:55;;;;;;;6.83;5.03;;;16.10;59.90;;;;;;4880075;29;20289;-74
2023/04/10 12:47:24;;;;;;;5.10;4.60;;;16.10;59.20;;;;;;4882448;29;20232;-74
2023/04/10 12:50:06;;;;;;;4.80;4.30;;;16.30;58.80;;;;;;4882805;29;20287;-77
2023/04/10 12:52:35;;;;;;;4.90;4.17;;;15.50;56.70;;;;;;4882402;29;20576;-73
2023/04/10 12:55:11;;;;;;;4.90;4.33;;;15.30;58.40;;;;;;4882509;29;20230;-74